Time;durP1;ratioP1;P1;durP2;ratioP2;P2;SDS_P1;SDS_P2;PMS_P1;PMS_P2;Temp;Humidity;BMP_temperature;BMP_pressure;BME280_temperature;BME280_humidity;BME280_pressure;Samples;Min_cycle;Max_cycle;Signal;HPM_P1;HPM_P2
2023/01/21 00:02:04;;;;;;;16.07;12.60;;;;;;;-2.19;100.00;150814.59;4979213;28;20467;-77
2023/01/21 00:04:33;;;;;;;18.03;13.30;;;;;;;-2.18;100.00;150817.19;4998547;28;20440;-77
2023/01/21 00:07:01;;;;;;;21.33;13.40;;;;;;;-2.21;100.00;150809.50;5003225;28;20535;-77
2023/01/21 00:09:28;;;;;;;15.63;12.60;;;;;;;-2.17;100.00;150818.47;5007614;28;20486;-77
2023/01/21 00:11:54;;;;;;;15.73;12.57;;;;;;;-2.08;100.00;150842.78;5029887;28;20457;-77
2023/01/21 00:14:21;;;;;;;13.10;11.40;;;;;;;-2.13;100.00;150828.69;5034918;28;21025;-77
2023/01/21 00:16:48;;;;;;;17.53;12.40;;;;;;;-2.08;100.00;150841.50;5009422;28;20479;-76
2023/01/21 00:19:14;;;;;;;16.17;11.97;;;;;;;-2.11;100.00;150833.81;5029514;28;20793;-77
2023/01/21 00:21:41;;;;;;;15.40;11.70;;;;;;;-2.06;100.00;150846.59;5003036;28;20456;-77
2023/01/21 00:24:10;;;;;;;16.13;11.93;;;;;;;-2.08;100.00;150841.50;4984457;28;20449;-77
2023/01/21 00:26:36;;;;;;;17.00;12.50;;;;;;;-2.13;100.00;150830.00;5029838;28;20456;-77
2023/01/21 00:29:03;;;;;;;14.80;11.67;;;;;;;-2.20;100.00;150812.06;4993022;28;20495;-77
2023/01/21 00:31:30;;;;;;;17.13;13.10;;;;;;;-2.16;100.00;150822.28;4992414;28;20910;-77
2023/01/21 00:33:57;;;;;;;18.37;12.80;;;;;;;-2.21;100.00;150808.19;5002601;28;20462;-77
2023/01/21 00:36:28;;;;;;;15.60;11.77;;;;;;;-2.17;100.00;150819.72;4995064;28;20459;-77
2023/01/21 00:38:55;;;;;;;15.30;12.20;;;;;;;-2.19;100.00;150814.59;4993058;28;20793;-76
2023/01/21 00:41:24;;;;;;;19.17;13.50;;;;;;;-2.22;100.00;150806.91;5003146;28;20491;-77
2023/01/21 00:43:50;;;;;;;18.07;12.50;;;;;;;-2.25;100.00;150797.97;5037776;28;20460;-77
2023/01/21 00:46:17;;;;;;;14.90;12.07;;;;;;;-2.26;100.00;150795.41;4997688;28;20546;-77
2023/01/21 00:48:44;;;;;;;13.90;11.77;;;;;;;-2.24;100.00;150800.50;5002932;28;20559;-76
2023/01/21 00:51:10;;;;;;;15.70;11.80;;;;;;;-2.28;100.00;150790.28;5012161;28;20451;-77
2023/01/21 00:53:40;;;;;;;16.97;12.33;;;;;;;-2.30;100.00;150785.19;4994154;28;20451;-76
2023/01/21 00:56:09;;;;;;;13.00;11.10;;;;;;;-2.32;100.00;150780.03;5023777;28;20432;-77
2023/01/21 00:58:37;;;;;;;19.90;12.87;;;;;;;-2.29;100.00;150787.72;5014519;28;20443;-77
2023/01/21 01:01:06;;;;;;;12.37;10.83;;;;;;;-2.24;100.00;150800.50;4999435;28;20876;-77
2023/01/21 01:03:33;;;;;;;14.17;11.03;;;;;;;-2.28;100.00;150791.59;5031183;28;20501;-77
2023/01/21 01:06:04;;;;;;;17.20;12.40;;;;;;;-2.33;100.00;150777.50;5034392;28;20443;-77
2023/01/21 01:08:31;;;;;;;15.17;11.53;;;;;;;-2.33;100.00;150778.72;5041414;28;20872;-77
2023/01/21 01:10:58;;;;;;;13.80;10.83;;;;;;;-2.32;100.00;150781.31;4985304;28;20459;-77
2023/01/21 01:13:25;;;;;;;13.97;10.60;;;;;;;-2.31;100.00;150782.59;5031805;28;20468;-77
2023/01/21 01:15:54;;;;;;;14.73;10.60;;;;;;;-2.30;100.00;150785.19;4991172;28;20454;-77
2023/01/21 01:18:22;;;;;;;14.10;10.60;;;;;;;-2.32;100.00;150780.03;4993021;28;20648;-77
2023/01/21 01:20:49;;;;;;;12.00;10.30;;;;;;;-2.32;100.00;150780.03;5024164;28;20456;-77
2023/01/21 01:23:15;;;;;;;13.60;10.93;;;;;;;-2.32;100.00;150780.03;4993378;28;20953;-77
2023/01/21 01:25:42;;;;;;;14.07;10.87;;;;;;;-2.37;100.00;150767.22;5001170;28;20470;-77
2023/01/21 01:28:09;;;;;;;13.30;10.80;;;;;;;-2.38;100.00;150764.69;5036581;28;20576;-76
2023/01/21 01:30:36;;;;;;;16.73;11.90;;;;;;;-2.43;100.00;150751.84;5002571;28;20548;-77
2023/01/21 01:33:04;;;;;;;13.77;9.83;;;;;;;-2.43;100.00;150751.84;4991562;28;20636;-77
2023/01/21 01:35:32;;;;;;;14.17;9.73;;;;;;;-2.52;99.42;150730.13;4997804;28;20458;-77
2023/01/21 01:38:06;;;;;;;11.50;9.17;;;;;;;-2.61;98.98;150707.06;5004401;28;20505;-77
2023/01/21 01:40:33;;;;;;;13.20;10.10;;;;;;;-2.67;98.84;150692.97;5041523;28;20514;-77
2023/01/21 01:43:00;;;;;;;16.00;11.13;;;;;;;-2.68;98.98;150690.44;5032864;28;20871;-76
2023/01/21 01:45:26;;;;;;;14.60;11.17;;;;;;;-2.70;98.85;150685.28;4994389;28;20503;-77
2023/01/21 01:47:58;;;;;;;12.07;10.30;;;;;;;-2.75;97.96;150671.19;5037473;28;20475;-77
2023/01/21 01:50:30;;;;;;;11.93;9.80;;;;;;;-2.73;96.36;150676.34;5030860;28;20455;-77
2023/01/21 01:52:59;;;;;;;12.73;9.60;;;;;;;-2.78;96.06;150664.78;4986701;28;20968;-76
2023/01/21 01:55:27;;;;;;;15.00;10.20;;;;;;;-2.89;96.80;150635.38;4993449;28;20461;-76
2023/01/21 01:57:54;;;;;;;13.83;9.37;;;;;;;-2.95;97.10;150621.31;5027375;28;20457;-76
2023/01/21 02:00:21;;;;;;;13.20;10.13;;;;;;;-2.95;96.45;150621.31;5003563;28;20446;-77
2023/01/21 02:05:31;;;;;;;13.77;9.43;;;;;;;-3.06;96.58;150593.16;4999764;28;20460;-76
2023/01/21 02:07:58;;;;;;;11.37;9.00;;;;;;;-3.08;97.73;150588.03;4999408;28;20501;-76
2023/01/21 02:10:24;;;;;;;11.87;8.90;;;;;;;-3.08;96.94;150589.31;4988489;28;20494;-76
2023/01/21 02:12:51;;;;;;;10.50;8.50;;;;;;;-3.05;98.41;150594.44;5005367;28;20457;-77
2023/01/21 02:15:18;;;;;;;10.43;7.73;;;;;;;-3.09;98.30;150585.47;4982145;28;20475;-76
2023/01/21 02:17:52;;;;;;;10.00;7.90;;;;;;;-3.11;98.69;150581.66;4996983;28;20795;-77
2023/01/21 02:20:35;;;;;;;8.53;7.60;;;;;;;-3.13;98.44;150575.25;5003326;28;20553;-77
2023/01/21 02:23:05;;;;;;;8.10;7.03;;;;;;;-3.14;98.13;150573.97;5003280;28;20889;-76
2023/01/21 02:26:07;;;;;;;10.83;8.10;;;;;;;-3.14;98.26;150572.66;4994895;28;20780;-77
2023/01/21 02:29:11;;;;;;;10.43;7.03;;;;;;;-3.14;98.59;150573.97;5034508;28;20470;-77
2023/01/21 02:31:53;;;;;;;9.90;7.00;;;;;;;-3.09;96.40;150586.75;4993729;28;20466;-76
2023/01/21 02:34:28;;;;;;;10.63;7.17;;;;;;;-3.03;96.32;150599.53;4990785;28;20432;-76
2023/01/21 02:37:02;;;;;;;12.97;7.70;;;;;;;-3.07;97.13;150590.56;4997195;28;20450;-76
2023/01/21 02:39:45;;;;;;;11.23;6.90;;;;;;;-3.15;96.66;150570.13;5025716;28;20457;-76
2023/01/21 02:42:17;;;;;;;8.80;6.40;;;;;;;-3.21;96.88;150554.78;5034600;28;20802;-76
2023/01/21 02:44:50;;;;;;;10.73;7.43;;;;;;;-3.22;97.69;150552.19;4989044;28;20487;-76
2023/01/21 02:47:22;;;;;;;8.97;6.97;;;;;;;-3.22;97.57;150552.19;5006273;28;20480;-77
2023/01/21 02:49:53;;;;;;;7.63;6.67;;;;;;;-3.24;97.18;150547.09;4994060;28;20547;-77
2023/01/21 02:52:22;;;;;;;10.87;7.00;;;;;;;-3.17;98.14;150565.00;5041229;28;20450;-76
2023/01/21 02:54:54;;;;;;;9.10;7.20;;;;;;;-3.22;99.35;150552.19;4997606;28;20634;-76
2023/01/21 02:57:34;;;;;;;8.03;6.77;;;;;;;-3.20;100.00;150557.31;4993254;28;20794;-76
2023/01/21 03:00:03;;;;;;;8.23;7.23;;;;;;;-3.26;98.83;150543.28;4997733;28;20442;-76
2023/01/21 03:02:40;;;;;;;8.93;5.83;;;;;;;-3.27;99.18;150539.41;5000998;28;20489;-77
2023/01/21 03:05:13;;;;;;;6.87;6.00;;;;;;;-3.29;98.71;150534.31;5035706;28;20558;-76
2023/01/21 03:07:45;;;;;;;9.20;6.77;;;;;;;-3.32;97.64;150526.63;5005832;28;20481;-76
2023/01/21 03:10:18;;;;;;;8.80;6.13;;;;;;;-3.33;97.58;150524.03;5011146;28;20459;-76
2023/01/21 03:12:50;;;;;;;10.43;7.00;;;;;;;-3.27;95.84;150539.41;5024750;28;20497;-77
2023/01/21 03:18:09;;;;;;;8.87;6.50;;;;;;;-3.15;95.02;150570.13;5007699;28;20462;-77
2023/01/21 03:20:40;;;;;;;8.77;5.73;;;;;;;-3.13;95.34;150575.25;5021656;28;20483;-76
2023/01/21 03:23:11;;;;;;;11.67;7.90;;;;;;;-3.21;96.92;150554.78;4990357;28;20498;-76
2023/01/21 03:25:38;;;;;;;10.67;8.00;;;;;;;-3.23;97.24;150549.66;5040503;28;20465;-76
2023/01/21 03:28:07;;;;;;;11.80;8.17;;;;;;;-3.26;98.08;150541.97;5007428;28;20449;-76
2023/01/21 03:30:35;;;;;;;12.80;8.27;;;;;;;-3.25;98.37;150544.50;5036518;28;20554;-76
2023/01/21 03:33:02;;;;;;;12.23;7.90;;;;;;;-3.32;98.72;150527.91;5005357;28;20961;-76
2023/01/21 03:35:32;;;;;;;10.63;8.30;;;;;;;-3.40;98.62;150506.16;4987091;28;20481;-76
2023/01/21 03:38:04;;;;;;;11.57;8.63;;;;;;;-3.47;98.42;150488.25;4997666;28;20543;-77
2023/01/21 03:40:32;;;;;;;11.33;7.57;;;;;;;-3.51;99.07;150478.00;4994057;28;20562;-76
2023/01/21 03:42:59;;;;;;;10.90;8.50;;;;;;;-3.54;98.45;150470.31;5032059;28;20455;-77
2023/01/21 03:45:33;;;;;;;9.07;7.83;;;;;;;-3.59;99.55;150457.53;4999154;28;20503;-76
2023/01/21 03:48:05;;;;;;;10.10;8.20;;;;;;;-3.62;100.00;150449.84;5008422;28;20472;-77
2023/01/21 03:50:36;;;;;;;9.37;8.10;;;;;;;-3.58;100.00;150460.09;4982968;28;20667;-77
2023/01/21 03:53:04;;;;;;;10.33;7.33;;;;;;;-3.64;100.00;150446.03;5020773;28;20542;-76
2023/01/21 03:55:31;;;;;;;8.90;7.10;;;;;;;-3.70;100.00;150430.69;5000393;28;20456;-77
2023/01/21 03:57:58;;;;;;;10.73;7.23;;;;;;;-3.72;100.00;150426.84;5002316;28;20445;-77
2023/01/21 04:00:25;;;;;;;7.47;5.80;;;;;;;-3.40;100.00;150506.16;5011892;28;20944;-76
2023/01/21 04:02:51;;;;;;;9.87;6.10;;;;;;;-3.33;99.81;150524.03;5001961;28;20447;-76
2023/01/21 04:05:18;;;;;;;6.47;5.53;;;;;;;-3.07;97.87;150590.56;5010004;28;20521;-76
2023/01/21 04:07:45;;;;;;;7.40;5.23;;;;;;;-2.87;95.88;150641.78;5029688;28;20503;-76
2023/01/21 04:10:13;;;;;;;6.50;5.40;;;;;;;-2.79;95.50;150660.97;5001452;28;20953;-76
2023/01/21 04:12:40;;;;;;;6.10;4.93;;;;;;;-2.72;96.19;150680.16;4988637;28;20480;-77
2023/01/21 04:15:08;;;;;;;10.30;6.20;;;;;;;-2.68;95.15;150689.16;4996559;28;20794;-76
2023/01/21 04:17:35;;;;;;;6.37;4.37;;;;;;;-2.63;96.59;150701.94;5032078;28;20447;-76
2023/01/21 04:20:01;;;;;;;5.43;4.07;;;;;;;-2.63;95.38;150701.94;4996257;28;20968;-76
2023/01/21 04:22:28;;;;;;;8.77;5.37;;;;;;;-2.64;95.14;150700.66;4975475;28;20532;-76
2023/01/21 04:24:55;;;;;;;7.27;5.30;;;;;;;-2.61;96.73;150707.06;5004467;28;20452;-76
2023/01/21 04:27:22;;;;;;;7.77;5.57;;;;;;;-2.63;95.98;150703.22;4995605;28;20956;-76
2023/01/21 04:29:49;;;;;;;5.47;4.97;;;;;;;-2.64;95.53;150700.66;5003374;28;21061;-76
2023/01/21 04:32:16;;;;;;;5.90;4.67;;;;;;;-2.66;96.14;150695.53;5010640;28;20522;-75
2023/01/21 04:34:42;;;;;;;8.30;5.77;;;;;;;-2.64;95.45;150699.38;4992552;28;20536;-74
2023/01/21 04:37:09;;;;;;;7.73;5.70;;;;;;;-2.65;95.31;150698.06;4997546;28;20845;-76
2023/01/21 04:39:36;;;;;;;7.00;4.53;;;;;;;-2.66;95.71;150695.53;5038684;28;20558;-76
2023/01/21 04:42:04;;;;;;;6.90;5.20;;;;;;;-2.67;96.13;150692.97;5037438;28;20456;-76
2023/01/21 04:44:32;;;;;;;7.67;5.27;;;;;;;-2.70;96.50;150685.28;5003619;28;20483;-76
2023/01/21 04:46:58;;;;;;;8.43;5.93;;;;;;;-2.81;97.11;150657.16;5037838;28;20459;-76
2023/01/21 04:49:25;;;;;;;6.20;4.67;;;;;;;-2.84;96.75;150648.19;5024976;28;20476;-76
2023/01/21 04:51:52;;;;;;;6.57;5.20;;;;;;;-2.93;96.98;150625.13;5024599;28;20445;-76
2023/01/21 04:54:18;;;;;;;6.70;5.10;;;;;;;-2.97;97.90;150616.19;4990814;28;20550;-76
2023/01/21 04:56:45;;;;;;;6.40;5.00;;;;;;;-3.01;97.52;150605.94;5036002;28;20955;-76
2023/01/21 04:59:12;;;;;;;8.50;5.80;;;;;;;-3.03;98.03;150599.53;5034395;28;20476;-76
2023/01/21 05:01:40;;;;;;;9.33;6.03;;;;;;;-3.00;98.33;150608.50;5003491;28;20579;-76
2023/01/21 05:04:07;;;;;;;7.40;5.70;;;;;;;-3.06;99.06;150593.16;5009657;28;20454;-76
2023/01/21 05:06:33;;;;;;;8.30;5.40;;;;;;;-3.07;99.32;150590.56;4990095;28;20492;-76
2023/01/21 05:09:00;;;;;;;7.93;5.93;;;;;;;-2.99;99.52;150609.81;4990375;28;20471;-76
2023/01/21 05:11:27;;;;;;;7.97;6.60;;;;;;;-2.96;99.11;150618.72;5002539;28;20488;-76
2023/01/21 05:13:53;;;;;;;7.17;5.63;;;;;;;-2.96;98.62;150618.72;5017714;28;20458;-76
2023/01/21 05:16:20;;;;;;;7.80;6.00;;;;;;;-3.05;98.45;150595.72;5006971;28;20463;-76
2023/01/21 05:18:48;;;;;;;9.20;6.27;;;;;;;-3.12;98.22;150579.06;5037801;28;20499;-76
2023/01/21 05:21:15;;;;;;;8.20;6.10;;;;;;;-3.21;99.01;150556.06;5011710;28;20459;-76
2023/01/21 05:23:42;;;;;;;9.47;6.37;;;;;;;-3.31;98.65;150530.44;5036643;28;20546;-76
2023/01/21 05:26:08;;;;;;;8.60;6.87;;;;;;;-3.44;99.67;150495.94;5030948;28;20554;-76
2023/01/21 05:28:35;;;;;;;12.50;8.43;;;;;;;-3.44;100.00;150497.19;5002344;28;20479;-75
2023/01/21 05:31:02;;;;;;;11.80;6.97;;;;;;;-3.46;100.00;150490.78;5028891;28;20951;-76
2023/01/21 05:33:31;;;;;;;13.40;8.57;;;;;;;-3.49;100.00;150483.09;4997148;28;20443;-75
2023/01/21 05:36:00;;;;;;;12.03;8.13;;;;;;;-3.45;100.00;150493.38;5009922;28;20458;-75
2023/01/21 05:38:26;;;;;;;11.37;9.73;;;;;;;-3.47;100.00;150488.25;4990057;28;20475;-75
2023/01/21 05:40:56;;;;;;;14.13;10.30;;;;;;;-3.48;100.00;150486.97;4995329;28;20462;-75
2023/01/21 05:43:23;;;;;;;16.90;10.23;;;;;;;-3.45;100.00;150493.38;4997972;28;20595;-75
2023/01/21 05:45:50;;;;;;;16.70;9.63;;;;;;;-3.44;100.00;150497.19;4990591;28;20468;-75
2023/01/21 05:48:17;;;;;;;15.83;10.70;;;;;;;-3.40;100.00;150507.44;5009614;28;20510;-75
2023/01/21 05:50:44;;;;;;;14.77;11.20;;;;;;;-3.43;100.00;150498.47;4998946;28;21045;-75
2023/01/21 05:53:12;;;;;;;17.03;10.87;;;;;;;-3.45;100.00;150493.38;4991444;28;20474;-75
2023/01/21 05:55:39;;;;;;;13.37;11.40;;;;;;;-3.46;100.00;150490.78;5001747;28;20456;-75
2023/01/21 05:58:06;;;;;;;14.30;10.63;;;;;;;-3.48;100.00;150485.69;5009473;28;20497;-75
2023/01/21 06:00:32;;;;;;;14.80;11.23;;;;;;;-3.44;100.00;150495.94;5003329;28;20465;-75
2023/01/21 06:03:00;;;;;;;14.33;10.67;;;;;;;-3.46;100.00;150490.78;5027259;28;20438;-75
2023/01/21 06:05:26;;;;;;;16.60;11.80;;;;;;;-3.42;100.00;150502.34;5000334;28;20485;-75
2023/01/21 06:07:53;;;;;;;17.90;12.60;;;;;;;-3.45;100.00;150493.38;5007017;28;20543;-75
2023/01/21 06:10:21;;;;;;;18.90;13.10;;;;;;;-3.51;100.00;150478.00;5002823;28;20892;-75
2023/01/21 06:12:50;;;;;;;19.87;13.10;;;;;;;-3.54;100.00;150471.59;5004595;28;20504;-74
2023/01/21 06:15:17;;;;;;;18.67;13.30;;;;;;;-3.54;100.00;150470.31;5003708;28;20590;-76
2023/01/21 06:17:43;;;;;;;19.70;14.67;;;;;;;-3.57;100.00;150462.69;5006215;28;20490;-76
2023/01/21 06:20:11;;;;;;;21.77;13.80;;;;;;;-3.57;100.00;150463.94;5036607;28;20454;-76
2023/01/21 06:22:38;;;;;;;18.93;13.27;;;;;;;-3.61;100.00;150452.44;5018782;28;20433;-75
2023/01/21 06:25:05;;;;;;;21.33;14.33;;;;;;;-3.60;100.00;150455.00;5040059;28;20459;-76
2023/01/21 06:27:36;;;;;;;21.10;14.97;;;;;;;-3.60;100.00;150456.25;5043203;28;20482;-76
2023/01/21 06:30:02;;;;;;;20.73;14.00;;;;;;;-3.49;100.00;150483.09;5037976;28;20830;-74
2023/01/21 06:32:29;;;;;;;19.60;13.53;;;;;;;-3.50;100.00;150481.88;5002780;28;20459;-74
2023/01/21 06:34:56;;;;;;;20.30;13.13;;;;;;;-3.50;100.00;150480.56;5001206;28;20486;-75
2023/01/21 06:37:23;;;;;;;19.73;13.73;;;;;;;-3.48;100.00;150485.69;5008332;28;20446;-74
2023/01/21 06:39:49;;;;;;;21.53;15.63;;;;;;;-3.48;100.00;150485.69;5009127;28;20781;-74
2023/01/21 06:42:17;;;;;;;18.80;14.83;;;;;;;-3.39;100.00;150508.72;5039464;28;20451;-74
2023/01/21 06:44:45;;;;;;;22.80;15.03;;;;;;;-3.47;100.00;150488.25;5008299;28;20487;-75
2023/01/21 06:47:12;;;;;;;19.53;13.70;;;;;;;-3.50;100.00;150480.56;5035342;28;21016;-75
2023/01/21 06:49:38;;;;;;;23.93;16.23;;;;;;;-3.56;100.00;150465.22;5006467;28;20475;-74
2023/01/21 06:52:06;;;;;;;24.00;17.33;;;;;;;-3.59;100.00;150457.53;5042089;28;20548;-74
2023/01/21 06:54:33;;;;;;;26.33;14.77;;;;;;;-3.55;100.00;150467.78;5009075;28;20462;-74
2023/01/21 06:56:59;;;;;;;27.07;16.23;;;;;;;-3.61;100.00;150452.44;5000889;28;20458;-74
2023/01/21 06:59:26;;;;;;;26.13;16.20;;;;;;;-3.60;100.00;150455.00;5007943;28;20508;-74
2023/01/21 07:01:57;;;;;;;25.17;15.70;;;;;;;-3.60;100.00;150455.00;5007817;28;20461;-74
2023/01/21 07:04:24;;;;;;;21.77;14.30;;;;;;;-3.56;100.00;150465.22;5007683;28;20453;-74
2023/01/21 07:06:51;;;;;;;26.90;16.33;;;;;;;-3.52;100.00;150475.47;5022666;28;20949;-76
2023/01/21 07:09:18;;;;;;;24.83;17.13;;;;;;;-3.63;100.00;150448.63;5036586;28;20627;-75
2023/01/21 07:11:44;;;;;;;26.23;16.60;;;;;;;-3.60;100.00;150456.25;5011410;28;20999;-75
2023/01/21 07:14:11;;;;;;;25.60;17.20;;;;;;;-3.67;100.00;150437.06;5003693;28;20541;-73
2023/01/21 07:16:38;;;;;;;29.67;16.97;;;;;;;-3.71;100.00;150428.16;4996959;28;20463;-74
2023/01/21 07:19:06;;;;;;;26.87;17.57;;;;;;;-3.70;100.00;150430.69;5001527;28;20844;-74
2023/01/21 07:21:34;;;;;;;24.23;16.47;;;;;;;-3.74;100.00;150421.75;4989191;28;20462;-74
2023/01/21 07:24:00;;;;;;;27.90;19.60;;;;;;;-3.76;100.00;150416.59;5038980;28;20450;-74
2023/01/21 07:26:27;;;;;;;27.10;19.27;;;;;;;-3.74;100.00;150421.75;4998068;28;20699;-74
2023/01/21 07:28:54;;;;;;;29.80;18.30;;;;;;;-3.75;100.00;150419.19;5034396;28;20539;-74
2023/01/21 07:31:21;;;;;;;26.60;16.40;;;;;;;-3.81;100.00;150402.53;5008871;28;20499;-75
2023/01/21 07:33:47;;;;;;;28.50;18.80;;;;;;;-3.75;100.00;150419.19;4988882;28;20452;-74
2023/01/21 07:36:16;;;;;;;29.03;19.20;;;;;;;-3.78;100.00;150410.22;5002054;28;20540;-74
2023/01/21 07:38:43;;;;;;;26.70;17.53;;;;;;;-3.76;100.00;150415.38;5001611;28;20463;-76
2023/01/21 07:41:09;;;;;;;28.47;19.20;;;;;;;-3.74;100.00;150421.75;5003754;28;20554;-74
2023/01/21 07:43:36;;;;;;;26.40;18.80;;;;;;;-3.83;100.00;150398.72;5039204;28;20457;-74
2023/01/21 07:46:03;;;;;;;27.60;17.77;;;;;;;-3.82;100.00;150401.28;5004003;28;20467;-74
2023/01/21 07:48:30;;;;;;;27.30;18.93;;;;;;;-3.84;100.00;150394.91;5034363;28;20461;-76
2023/01/21 07:50:57;;;;;;;28.60;18.90;;;;;;;-3.73;100.00;150424.28;5003477;28;20566;-76
2023/01/21 07:53:26;;;;;;;27.60;18.40;;;;;;;-3.78;100.00;150410.22;5004795;28;20454;-74
2023/01/21 07:55:52;;;;;;;32.10;18.87;;;;;;;-3.73;100.00;150424.28;5000709;28;20445;-73
2023/01/21 07:58:19;;;;;;;27.20;17.07;;;;;;;-3.70;100.00;150431.97;5005674;28;20539;-73
2023/01/21 08:00:45;;;;;;;28.77;20.07;;;;;;;-3.73;100.00;150423.00;5005563;28;20465;-74
2023/01/21 08:03:12;;;;;;;30.27;21.73;;;;;;;-3.75;100.00;150419.19;5039415;28;20473;-74
2023/01/21 08:05:39;;;;;;;34.37;17.87;;;;;;;-3.67;100.00;150437.06;5036137;28;20920;-74
2023/01/21 08:08:05;;;;;;;25.07;17.80;;;;;;;-3.63;100.00;150447.31;5037499;28;20454;-74
2023/01/21 08:10:34;;;;;;;27.93;17.40;;;;;;;-3.58;100.00;150460.09;5006509;28;20586;-75
2023/01/21 08:13:00;;;;;;;29.90;17.27;;;;;;;-3.50;100.00;150481.88;5005130;28;20534;-74
2023/01/21 08:15:27;;;;;;;25.97;19.00;;;;;;;-3.47;100.00;150488.25;5022421;28;20458;-74
2023/01/21 08:17:55;;;;;;;29.03;18.33;;;;;;;-3.45;100.00;150493.38;5006062;28;20462;-74
2023/01/21 08:20:22;;;;;;;27.87;17.93;;;;;;;-3.39;100.00;150508.72;5006554;28;20462;-75
2023/01/21 08:22:49;;;;;;;25.27;17.20;;;;;;;-3.42;100.00;150502.34;5001763;28;20428;-75
2023/01/21 08:25:16;;;;;;;32.43;18.20;;;;;;;-3.32;100.00;150526.63;5003364;28;20458;-75
2023/01/21 08:27:44;;;;;;;25.00;16.17;;;;;;;-3.22;100.00;150553.50;5006114;28;20449;-75
2023/01/21 08:30:11;;;;;;;30.47;18.57;;;;;;;-3.15;100.00;150570.13;5005464;28;20816;-75
2023/01/21 08:32:38;;;;;;;29.70;18.50;;;;;;;-3.23;100.00;150550.91;5007769;28;21595;-76
2023/01/21 08:35:06;;;;;;;30.07;18.00;;;;;;;-3.21;100.00;150554.78;5005489;28;20512;-76
2023/01/21 08:37:32;;;;;;;27.27;16.73;;;;;;;-3.13;100.00;150576.53;5007858;28;20454;-75
2023/01/21 08:39:59;;;;;;;28.73;17.23;;;;;;;-3.10;100.00;150584.16;4996465;28;20509;-75
2023/01/21 08:42:26;;;;;;;28.67;17.40;;;;;;;-3.09;100.00;150585.47;5008650;28;20450;-76
2023/01/21 08:44:54;;;;;;;31.60;17.60;;;;;;;-3.08;100.00;150588.03;5007498;28;20501;-75
2023/01/21 08:47:20;;;;;;;32.10;19.60;;;;;;;-3.01;100.00;150605.94;5004892;28;20589;-76
2023/01/21 08:49:47;;;;;;;26.70;17.87;;;;;;;-3.03;100.00;150600.84;5000885;28;20515;-74
2023/01/21 08:52:15;;;;;;;25.57;17.90;;;;;;;-2.98;100.00;150613.63;5004941;28;20451;-75
2023/01/21 08:54:42;;;;;;;24.27;15.23;;;;;;;-2.96;100.00;150618.72;5002615;28;20473;-74
2023/01/21 08:57:10;;;;;;;27.00;15.70;;;;;;;-2.89;100.00;150636.69;4986858;28;20461;-75
2023/01/21 08:59:36;;;;;;;25.83;16.23;;;;;;;-2.85;100.00;150645.59;5030818;28;21006;-75
2023/01/21 09:02:04;;;;;;;31.50;17.87;;;;;;;-2.82;100.00;150654.56;5038717;28;20471;-75
2023/01/21 09:04:31;;;;;;;26.77;15.83;;;;;;;-2.78;100.00;150664.78;4999672;28;21075;-75
2023/01/21 09:06:58;;;;;;;24.57;15.37;;;;;;;-2.64;100.00;150699.38;5004473;28;20561;-76
2023/01/21 09:09:24;;;;;;;30.00;15.40;;;;;;;-2.61;100.00;150707.06;5039450;28;20812;-76
2023/01/21 09:11:52;;;;;;;26.23;15.80;;;;;;;-2.58;100.00;150714.75;5034096;28;20456;-76
2023/01/21 09:14:19;;;;;;;29.63;16.30;;;;;;;-2.58;100.00;150716.03;5033038;28;20465;-76
2023/01/21 09:16:48;;;;;;;25.83;14.90;;;;;;;-2.49;100.00;150737.81;5001336;28;20510;-76
2023/01/21 09:19:16;;;;;;;24.33;15.80;;;;;;;-2.56;100.00;150721.13;5002430;28;20456;-76
2023/01/21 09:21:42;;;;;;;25.00;14.50;;;;;;;-2.48;100.00;150741.63;5007412;28;20463;-76
2023/01/21 09:24:09;;;;;;;24.80;16.20;;;;;;;-2.49;100.00;150739.03;5003278;28;20967;-76
2023/01/21 09:26:36;;;;;;;28.37;16.90;;;;;;;-2.48;100.00;150740.34;5000425;28;20571;-76
2023/01/21 09:29:02;;;;;;;27.77;18.30;;;;;;;-2.47;100.00;150744.19;4988838;28;20554;-76
2023/01/21 09:31:30;;;;;;;29.37;16.60;;;;;;;-2.41;100.00;150757.00;5035889;28;20477;-76
2023/01/21 09:34:00;;;;;;;30.57;17.63;;;;;;;-2.56;100.00;150721.13;4998924;28;20450;-75
2023/01/21 09:36:29;;;;;;;25.93;14.90;;;;;;;-2.50;100.00;150736.50;5004440;28;21122;-76
2023/01/21 09:38:56;;;;;;;23.63;15.00;;;;;;;-2.42;100.00;150754.41;5037003;28;20489;-75
2023/01/21 09:41:26;;;;;;;25.47;15.33;;;;;;;-2.48;100.00;150741.63;4999852;28;20452;-75
2023/01/21 09:43:59;;;;;;;29.20;16.50;;;;;;;-2.38;100.00;150765.94;5007840;28;20479;-76
2023/01/21 09:46:32;;;;;;;23.40;15.30;;;;;;;-2.39;100.00;150762.09;5001870;28;20559;-75
2023/01/21 09:49:01;;;;;;;24.03;14.93;;;;;;;-2.30;100.00;150785.19;5003753;28;21029;-76
2023/01/21 09:51:45;;;;;;;24.10;15.57;;;;;;;-2.29;100.00;150789.00;5018360;28;20475;-76
2023/01/21 09:54:17;;;;;;;26.63;15.07;;;;;;;-2.28;100.00;150790.28;5020882;28;20454;-76
2023/01/21 09:56:52;;;;;;;20.67;14.17;;;;;;;-2.31;100.00;150782.59;5006202;28;20465;-75
2023/01/21 09:59:23;;;;;;;23.30;13.90;;;;;;;-2.35;100.00;150772.31;5002115;28;20562;-77
2023/01/21 10:01:51;;;;;;;16.80;11.57;;;;;;;-2.38;100.00;150765.94;5008211;28;20461;-75
2023/01/21 10:04:31;;;;;;;22.83;14.23;;;;;;;-2.38;100.00;150764.69;4988199;28;20979;-73
2023/01/21 10:07:04;;;;;;;18.57;11.07;;;;;;;-2.39;100.00;150762.09;5029796;28;21011;-73
2023/01/21 10:09:53;;;;;;;18.20;12.67;;;;;;;-2.46;100.00;150746.72;5007041;28;20459;-74
2023/01/21 10:12:27;;;;;;;23.43;14.53;;;;;;;-2.42;100.00;150755.72;5037500;28;20449;-75
2023/01/21 10:15:09;;;;;;;22.33;13.60;;;;;;;-2.43;100.00;150753.13;5005767;28;20452;-73
2023/01/21 10:17:46;;;;;;;18.63;12.37;;;;;;;-2.38;100.00;150764.69;5019296;28;20451;-73
2023/01/21 10:20:15;;;;;;;23.63;13.77;;;;;;;-2.37;100.00;150767.22;5006987;28;20822;-75
2023/01/21 10:22:47;;;;;;;24.97;14.90;;;;;;;-2.38;100.00;150764.69;5003217;28;20527;-75
2023/01/21 10:25:19;;;;;;;22.07;14.33;;;;;;;-2.30;100.00;150785.19;5005392;28;20497;-75
2023/01/21 10:27:46;;;;;;;25.03;13.20;;;;;;;-2.23;100.00;150803.09;5039019;28;20458;-75
2023/01/21 10:30:22;;;;;;;23.40;13.73;;;;;;;-2.24;100.00;150800.50;5025580;28;20578;-75
2023/01/21 10:32:51;;;;;;;21.57;13.87;;;;;;;-2.18;100.00;150815.91;5007696;28;20446;-75
2023/01/21 10:35:18;;;;;;;26.57;16.47;;;;;;;-2.12;100.00;150831.28;5041069;28;20455;-75
2023/01/21 10:37:49;;;;;;;25.90;17.00;;;;;;;-2.18;100.00;150815.91;5012269;28;20467;-73
2023/01/21 10:40:41;;;;;;;23.50;15.30;;;;;;;-2.19;100.00;150813.31;5038588;28;20559;-74
2023/01/21 10:43:11;;;;;;;22.37;14.20;;;;;;;-2.21;100.00;150808.19;5021314;28;20443;-74
2023/01/21 10:45:42;;;;;;;27.90;17.17;;;;;;;-2.19;100.00;150813.31;5023737;28;20461;-74
2023/01/21 10:48:14;;;;;;;25.90;15.63;;;;;;;-2.14;100.00;150827.41;5010609;28;20451;-74
2023/01/21 10:50:48;;;;;;;19.83;13.43;;;;;;;-2.03;100.00;150854.31;5006380;28;20506;-74
2023/01/21 10:53:22;;;;;;;24.43;15.00;;;;;;;-2.05;100.00;150850.47;5039085;28;20451;-74
2023/01/21 10:56:08;;;;;;;19.60;13.40;;;;;;;-2.10;100.00;150837.69;5021566;28;20457;-76
2023/01/21 10:58:38;;;;;;;20.53;12.67;;;;;;;-2.07;100.00;150845.38;5008539;28;20449;-74
2023/01/21 11:01:07;;;;;;;23.57;14.60;;;;;;;-2.06;100.00;150846.59;5040554;28;20572;-73
2023/01/21 11:03:37;;;;;;;25.43;15.47;;;;;;;-2.03;100.00;150854.31;5005966;28;20454;-73
2023/01/21 11:06:07;;;;;;;23.90;13.87;;;;;;;-1.99;100.00;150864.56;5039744;28;20553;-74
2023/01/21 11:08:35;;;;;;;21.63;12.93;;;;;;;-1.96;100.00;150872.25;4987576;28;20479;-76
2023/01/21 11:11:03;;;;;;;20.07;13.87;;;;;;;-1.94;100.00;150877.38;5007663;28;20858;-76
2023/01/21 11:13:30;;;;;;;20.40;13.67;;;;;;;-1.94;100.00;150878.66;5004320;28;20462;-76
2023/01/21 11:15:58;;;;;;;18.63;13.67;;;;;;;-1.91;100.00;150885.06;5005597;28;21077;-74
2023/01/21 11:18:27;;;;;;;20.53;14.33;;;;;;;-1.95;100.00;150874.78;5002212;28;20505;-74
2023/01/21 11:20:56;;;;;;;21.70;13.60;;;;;;;-1.89;100.00;150890.19;5037164;28;20577;-74